Lilienfeld, Austria
Current Conditions -  °F | °C
As of 2:20 PM on Thursday 18 Dec 2014 (Local Time) from LOWW Reporting Station
Broken Clouds Broken Clouds  
Wind Chill: 50°   Ceiling: 5200
Heat Index: 50°   Visibility: 6mi
Dew Point: 43°   Wind: 6mph
Humidity: 76%   Direction: NA
Pressure: 30"   Gusts: NA
Location:  48.01°N, 15.6°E
Report Text: LOWW 181220Z VRB05KT 9999 FEW028 BKN052 10/06 Q1016 NOSIG
Loading
Personal Weather Stations






























Interactive Weather Map New forecast layout! Learn more

10-Day Weather Forecast

Advertisements
Track Severe Weather on mobile